createdAt,value
2023-07-24T00:00:25.892Z,6.80
2023-07-24T00:01:25.965Z,10.00
2023-07-24T00:02:25.866Z,7.60
2023-07-24T00:03:25.871Z,7.60
2023-07-24T00:04:25.834Z,7.90
2023-07-24T00:05:25.819Z,7.30
2023-07-24T00:06:25.832Z,5.50
2023-07-24T00:07:25.797Z,6.70
2023-07-24T00:08:25.781Z,7.50
2023-07-24T00:09:25.781Z,7.80
2023-07-24T00:10:25.789Z,6.20
2023-07-24T00:11:25.818Z,6.70
2023-07-24T00:12:25.764Z,7.40
2023-07-24T00:13:25.740Z,8.00
2023-07-24T00:14:25.701Z,8.40
2023-07-24T00:15:25.718Z,8.30
2023-07-24T00:16:25.744Z,7.60
2023-07-24T00:17:25.770Z,8.50
2023-07-24T00:18:25.682Z,6.90
2023-07-24T00:19:25.696Z,7.30
2023-07-24T00:20:25.710Z,8.30
2023-07-24T00:21:25.659Z,8.80
2023-07-24T00:22:25.630Z,11.80
2023-07-24T00:23:25.668Z,10.10
2023-07-24T00:24:25.654Z,8.20
2023-07-24T00:25:25.588Z,7.40
2023-07-24T00:26:25.628Z,10.40
2023-07-24T00:27:25.569Z,7.40
2023-07-24T00:28:25.564Z,10.10
2023-07-24T00:29:25.596Z,6.90
2023-07-24T00:30:25.531Z,8.40
2023-07-24T00:31:25.635Z,8.20
2023-07-24T00:32:25.522Z,6.50
2023-07-24T00:33:25.510Z,8.40
2023-07-24T00:34:26.324Z,7.50
2023-07-24T00:35:25.488Z,4.90
2023-07-24T00:36:25.466Z,6.10
2023-07-24T00:37:25.462Z,8.40
2023-07-24T00:38:25.519Z,6.30
2023-07-24T00:39:25.452Z,7.90
2023-07-24T00:40:25.427Z,7.10
2023-07-24T00:41:25.426Z,6.10
2023-07-24T00:42:25.399Z,6.40
2023-07-24T00:43:25.402Z,7.70
2023-07-24T00:44:25.388Z,6.10
2023-07-24T00:45:25.374Z,8.90
2023-07-24T00:46:26.185Z,6.90
2023-07-24T00:47:25.401Z,7.40
2023-07-24T00:48:25.350Z,8.40
2023-07-24T00:49:25.399Z,6.60
2023-07-24T00:50:25.317Z,6.60
2023-07-24T00:51:25.308Z,5.60
2023-07-24T00:52:25.283Z,7.60
2023-07-24T00:53:25.324Z,5.80
2023-07-24T00:54:25.279Z,7.60
2023-07-24T00:55:25.252Z,8.20
2023-07-24T00:56:25.266Z,7.50
2023-07-24T00:57:25.259Z,6.80
2023-07-24T00:58:25.279Z,6.40
2023-07-24T00:59:25.217Z,7.30
2023-07-24T01:00:25.214Z,6.00
2023-07-24T01:01:25.213Z,7.90
2023-07-24T01:02:25.284Z,6.80
2023-07-24T01:03:25.213Z,7.20
2023-07-24T01:04:25.205Z,8.20
2023-07-24T01:05:25.209Z,6.60
2023-07-24T01:06:25.160Z,6.60
2023-07-24T01:07:25.134Z,7.20
2023-07-24T01:08:25.133Z,7.10
2023-07-24T01:09:25.178Z,6.40
2023-07-24T01:10:25.094Z,8.00
2023-07-24T01:11:25.089Z,6.80
2023-07-24T01:12:25.096Z,6.20
2023-07-24T01:13:25.064Z,7.40
2023-07-24T01:14:25.058Z,8.20
2023-07-24T01:15:25.147Z,7.60
2023-07-24T01:16:25.078Z,7.40
2023-07-24T01:17:25.348Z,7.30
2023-07-24T01:18:25.005Z,6.20
2023-07-24T01:19:25.005Z,7.20
2023-07-24T01:20:24.972Z,6.40
2023-07-24T01:21:24.982Z,7.60
2023-07-24T01:22:24.966Z,7.60
2023-07-24T01:23:25.003Z,6.70
2023-07-24T01:24:25.010Z,8.00
2023-07-24T01:25:24.955Z,7.00
2023-07-24T01:26:24.941Z,7.50
2023-07-24T01:27:24.921Z,7.50
2023-07-24T01:28:24.903Z,7.90
2023-07-24T01:29:25.728Z,6.70
2023-07-24T01:30:25.035Z,7.70
2023-07-24T01:31:24.888Z,7.90
2023-07-24T01:32:24.902Z,10.30
2023-07-24T01:33:24.869Z,8.00
2023-07-24T01:34:24.831Z,10.70
2023-07-24T01:35:24.843Z,11.50
2023-07-24T01:36:24.815Z,9.40
2023-07-24T01:37:24.787Z,7.30
2023-07-24T01:38:24.842Z,9.20
2023-07-24T01:39:24.827Z,7.00
2023-07-24T01:40:24.768Z,8.10
2023-07-24T01:41:24.751Z,8.80
2023-07-24T01:42:24.736Z,6.30
2023-07-24T01:43:24.806Z,7.60
2023-07-24T01:44:24.780Z,6.50
2023-07-24T01:45:24.721Z,7.20
2023-07-24T01:46:24.779Z,7.80
2023-07-24T01:47:24.797Z,7.20
2023-07-24T01:48:24.688Z,7.30
2023-07-24T01:49:24.750Z,6.60
2023-07-24T01:50:24.759Z,11.60
2023-07-24T01:51:24.649Z,7.60
2023-07-24T01:52:24.631Z,6.90
2023-07-24T01:53:24.644Z,8.60
2023-07-24T01:54:24.664Z,5.60
2023-07-24T01:55:24.639Z,7.70
2023-07-24T01:56:24.591Z,9.80
2023-07-24T01:57:24.593Z,7.70
2023-07-24T01:58:24.601Z,6.90
2023-07-24T01:59:24.599Z,5.70
2023-07-24T02:00:24.563Z,7.50
2023-07-24T02:01:24.562Z,6.10
2023-07-24T02:02:24.575Z,7.60
2023-07-24T02:03:24.628Z,6.30
2023-07-24T02:04:25.162Z,8.10
2023-07-24T02:05:24.541Z,8.40
2023-07-24T02:06:24.473Z,6.10
2023-07-24T02:07:24.485Z,8.10
2023-07-24T02:08:24.452Z,7.00
2023-07-24T02:09:24.463Z,7.30
2023-07-24T02:10:24.441Z,8.70
2023-07-24T02:11:24.426Z,7.70
2023-07-24T02:12:24.409Z,5.20
2023-07-24T02:13:24.414Z,6.20
2023-07-24T02:14:24.443Z,7.30
2023-07-24T02:15:24.396Z,6.80
2023-07-24T02:16:24.420Z,11.30
2023-07-24T02:17:24.437Z,7.40
2023-07-24T02:18:24.364Z,6.60
2023-07-24T02:19:24.336Z,6.80
2023-07-24T02:20:24.329Z,7.50
2023-07-24T02:21:24.319Z,7.60
2023-07-24T02:22:24.306Z,6.40
2023-07-24T02:23:24.332Z,7.40
2023-07-24T02:24:24.302Z,7.10
2023-07-24T02:25:26.019Z,6.40
2023-07-24T02:26:24.308Z,6.20
2023-07-24T02:27:24.253Z,7.70
2023-07-24T02:28:24.220Z,7.10
2023-07-24T02:29:24.240Z,6.80
2023-07-24T02:30:24.207Z,9.70
2023-07-24T02:31:24.243Z,5.60
2023-07-24T02:32:24.237Z,6.60
2023-07-24T02:33:24.187Z,10.90
2023-07-24T02:34:24.170Z,8.20
2023-07-24T02:35:24.205Z,6.40
2023-07-24T02:36:24.134Z,6.80
2023-07-24T02:37:24.167Z,8.50
2023-07-24T02:38:24.265Z,9.40
2023-07-24T02:39:24.150Z,8.40
2023-07-24T02:40:24.127Z,8.10
2023-07-24T02:41:24.076Z,8.20
2023-07-24T02:42:24.081Z,7.90
2023-07-24T02:43:24.075Z,11.50
2023-07-24T02:44:24.672Z,11.00
2023-07-24T02:45:24.044Z,8.40
2023-07-24T02:46:24.055Z,8.70
2023-07-24T02:47:24.083Z,8.70
2023-07-24T02:48:24.050Z,11.00
2023-07-24T02:49:23.988Z,13.50
2023-07-24T02:50:24.034Z,8.70
2023-07-24T02:51:23.989Z,8.20
2023-07-24T02:52:23.991Z,9.40
2023-07-24T02:53:23.957Z,8.90
2023-07-24T02:54:23.957Z,9.40
2023-07-24T02:55:23.932Z,8.20
2023-07-24T02:56:23.926Z,9.60
2023-07-24T02:57:23.912Z,9.10
2023-07-24T02:58:23.919Z,6.90
2023-07-24T02:59:23.877Z,8.00
2023-07-24T03:00:23.934Z,7.70
2023-07-24T03:01:23.903Z,8.30
2023-07-24T03:02:23.951Z,8.10
2023-07-24T03:03:23.879Z,8.20
2023-07-24T03:04:24.669Z,9.60
2023-07-24T03:05:24.022Z,8.60
2023-07-24T03:06:23.829Z,7.50
2023-07-24T03:07:23.799Z,10.70
2023-07-24T03:08:23.791Z,7.60
2023-07-24T03:09:23.763Z,8.90
2023-07-24T03:10:23.850Z,12.20
2023-07-24T03:11:23.768Z,8.90
2023-07-24T03:12:23.733Z,8.00
2023-07-24T03:13:23.722Z,8.60
2023-07-24T03:14:23.734Z,10.30
2023-07-24T03:15:23.733Z,12.80
2023-07-24T03:16:23.769Z,7.60
2023-07-24T03:17:23.709Z,10.10
2023-07-24T03:18:23.717Z,8.80
2023-07-24T03:19:23.652Z,9.30
2023-07-24T03:20:23.665Z,11.20
2023-07-24T03:21:23.642Z,8.10
2023-07-24T03:22:23.669Z,9.80
2023-07-24T03:23:23.626Z,8.00
2023-07-24T03:24:23.674Z,9.60
2023-07-24T03:25:23.614Z,11.60
2023-07-24T03:26:23.617Z,9.80
2023-07-24T03:27:23.641Z,10.70
2023-07-24T03:28:23.626Z,11.60
2023-07-24T03:29:23.544Z,10.00
2023-07-24T03:30:23.643Z,11.30
2023-07-24T03:31:23.705Z,9.70
2023-07-24T03:32:23.553Z,12.00
2023-07-24T03:33:23.520Z,9.20
2023-07-24T03:34:23.546Z,10.10
2023-07-24T03:35:23.500Z,11.00
2023-07-24T03:36:24.738Z,9.10
2023-07-24T03:37:23.449Z,8.20
2023-07-24T03:38:23.464Z,11.00
2023-07-24T03:39:23.486Z,8.70
2023-07-24T03:40:23.436Z,8.30
2023-07-24T03:41:23.433Z,12.30
2023-07-24T03:42:23.413Z,11.80
2023-07-24T03:43:23.406Z,10.70
2023-07-24T03:44:23.412Z,10.70
2023-07-24T03:45:24.376Z,9.20
2023-07-24T03:46:23.406Z,9.40
2023-07-24T03:47:23.419Z,10.10
2023-07-24T03:48:23.373Z,7.70
2023-07-24T03:49:23.341Z,8.60
2023-07-24T03:50:23.326Z,10.80
2023-07-24T03:51:23.321Z,13.30
2023-07-24T03:52:23.310Z,10.40
2023-07-24T03:53:23.287Z,11.30
2023-07-24T03:54:23.328Z,9.40
2023-07-24T03:55:23.275Z,10.20
2023-07-24T03:56:23.278Z,12.20
2023-07-24T03:57:23.289Z,10.50
2023-07-24T03:58:23.290Z,14.50
2023-07-24T03:59:23.223Z,10.70
2023-07-24T04:00:23.206Z,10.20
2023-07-24T04:01:23.284Z,11.40
2023-07-24T04:02:23.235Z,12.60
2023-07-24T04:03:23.223Z,9.00
2023-07-24T04:04:23.225Z,9.80
2023-07-24T04:05:23.135Z,11.50
2023-07-24T04:06:23.263Z,12.70
2023-07-24T04:07:23.158Z,10.80
2023-07-24T04:08:23.127Z,13.50
2023-07-24T04:09:23.135Z,12.60
2023-07-24T04:10:23.094Z,11.50
2023-07-24T04:11:23.093Z,11.30
2023-07-24T04:12:23.113Z,10.00
2023-07-24T04:13:23.053Z,11.70
2023-07-24T04:14:23.078Z,8.90
2023-07-24T04:15:23.081Z,11.10
2023-07-24T04:16:23.039Z,13.10
2023-07-24T04:17:23.115Z,12.30
2023-07-24T04:18:23.005Z,9.40
2023-07-24T04:19:22.998Z,12.50
2023-07-24T04:20:23.039Z,11.90
2023-07-24T04:21:23.075Z,9.50
2023-07-24T04:22:22.992Z,11.60
2023-07-24T04:23:23.019Z,9.20
2023-07-24T04:24:22.974Z,12.10
2023-07-24T04:25:22.940Z,12.70
2023-07-24T04:26:23.114Z,12.30
2023-07-24T04:27:22.907Z,12.20
2023-07-24T04:28:22.905Z,11.40
2023-07-24T04:29:22.946Z,12.30
2023-07-24T04:30:22.866Z,11.10
2023-07-24T04:31:23.009Z,16.90
2023-07-24T04:32:22.992Z,12.50
2023-07-24T04:33:22.880Z,13.20
2023-07-24T04:34:22.830Z,9.70
2023-07-24T04:35:22.833Z,9.80
2023-07-24T04:36:25.749Z,11.10
2023-07-24T04:37:22.804Z,13.20
2023-07-24T04:38:22.790Z,14.40
2023-07-24T04:39:22.779Z,11.00
2023-07-24T04:40:22.804Z,11.70
2023-07-24T04:41:22.762Z,13.10
2023-07-24T04:42:22.752Z,9.20
2023-07-24T04:43:22.728Z,11.00
2023-07-24T04:44:22.708Z,12.00
2023-07-24T04:45:24.160Z,10.50
2023-07-24T04:46:22.798Z,11.90
2023-07-24T04:47:22.693Z,11.20
2023-07-24T04:48:22.667Z,11.90
2023-07-24T04:49:22.706Z,10.80
2023-07-24T04:50:22.663Z,10.80
2023-07-24T04:51:22.661Z,9.80
2023-07-24T04:52:22.681Z,12.20
2023-07-24T04:53:22.629Z,10.10
2023-07-24T04:54:22.629Z,10.50
2023-07-24T04:55:22.604Z,10.40
2023-07-24T04:56:22.593Z,13.00
2023-07-24T04:57:22.568Z,11.20
2023-07-24T04:58:22.568Z,10.60
2023-07-24T04:59:22.572Z,12.00
2023-07-24T05:00:22.611Z,12.50
2023-07-24T05:01:22.591Z,11.20
2023-07-24T05:02:22.598Z,11.50
2023-07-24T05:03:22.522Z,8.90
2023-07-24T05:04:22.559Z,11.60
2023-07-24T05:05:22.644Z,11.30
2023-07-24T05:06:22.468Z,10.80
2023-07-24T05:07:22.473Z,10.40
2023-07-24T05:08:22.449Z,9.50
2023-07-24T05:09:22.457Z,12.00
2023-07-24T05:10:22.522Z,11.50
2023-07-24T05:11:22.426Z,11.00
2023-07-24T05:12:22.401Z,13.30
2023-07-24T05:13:22.452Z,11.50
2023-07-24T05:14:22.402Z,8.70
2023-07-24T05:15:22.393Z,12.10
2023-07-24T05:16:22.411Z,12.00
2023-07-24T05:17:22.386Z,11.70
2023-07-24T05:18:23.352Z,9.80
2023-07-24T05:19:22.360Z,11.10
2023-07-24T05:20:22.411Z,9.20
2023-07-24T05:21:22.316Z,11.10
2023-07-24T05:22:22.318Z,8.80
2023-07-24T05:23:22.328Z,11.40
2023-07-24T05:24:22.285Z,7.90
2023-07-24T05:25:22.307Z,10.00
2023-07-24T05:26:22.246Z,10.30
2023-07-24T05:27:22.258Z,10.40
2023-07-24T05:28:22.277Z,10.50
2023-07-24T05:29:22.325Z,10.30
2023-07-24T05:30:22.227Z,12.50
2023-07-24T05:31:22.205Z,10.10
2023-07-24T05:32:22.244Z,9.20
2023-07-24T05:33:22.709Z,9.60
2023-07-24T05:34:22.171Z,10.70
2023-07-24T05:35:22.182Z,9.70
2023-07-24T05:36:22.132Z,12.20
2023-07-24T05:37:22.173Z,9.70
2023-07-24T05:38:22.171Z,12.60
2023-07-24T05:39:22.095Z,10.80
2023-07-24T05:40:22.783Z,9.80
2023-07-24T05:41:22.078Z,9.20
2023-07-24T05:42:22.085Z,9.30
2023-07-24T05:43:22.700Z,10.30
2023-07-24T05:44:22.051Z,11.60
2023-07-24T05:45:22.152Z,10.70
2023-07-24T05:46:22.186Z,10.10
2023-07-24T05:47:22.063Z,11.50
2023-07-24T05:48:22.012Z,11.50
2023-07-24T05:49:21.996Z,10.30
2023-07-24T05:50:22.121Z,9.60
2023-07-24T05:51:21.997Z,12.40
2023-07-24T05:52:22.016Z,8.80
2023-07-24T05:53:23.775Z,9.80
2023-07-24T05:54:21.965Z,8.80
2023-07-24T05:55:21.964Z,12.80
2023-07-24T05:56:21.929Z,9.90
2023-07-24T05:57:22.007Z,11.70
2023-07-24T05:58:22.712Z,13.60
2023-07-24T05:59:22.055Z,11.00
2023-07-24T06:00:21.943Z,8.60
2023-07-24T06:01:21.937Z,10.00
2023-07-24T06:02:21.856Z,10.60
2023-07-24T06:03:21.967Z,9.40
2023-07-24T06:04:22.082Z,11.40
2023-07-24T06:05:21.950Z,9.10
2023-07-24T06:06:22.640Z,9.40
2023-07-24T06:07:21.790Z,10.90
2023-07-24T06:08:22.587Z,9.10
2023-07-24T06:09:22.431Z,8.80
2023-07-24T06:10:21.784Z,8.10
2023-07-24T06:11:21.750Z,9.90
2023-07-24T06:12:21.741Z,8.80
2023-07-24T06:13:21.745Z,11.00
2023-07-24T06:14:21.735Z,10.90
2023-07-24T06:15:21.724Z,10.30
2023-07-24T06:16:21.736Z,12.70
2023-07-24T06:17:21.684Z,9.80
2023-07-24T06:18:21.692Z,9.00
2023-07-24T06:19:21.651Z,9.80
2023-07-24T06:20:21.742Z,10.80
2023-07-24T06:21:21.656Z,8.30
2023-07-24T06:22:21.620Z,13.10
2023-07-24T06:23:21.605Z,9.10
2023-07-24T06:24:21.659Z,11.00
2023-07-24T06:25:22.579Z,10.70
2023-07-24T06:26:21.583Z,9.00
2023-07-24T06:27:21.580Z,9.90
2023-07-24T06:28:21.602Z,10.40
2023-07-24T06:29:21.575Z,9.30
2023-07-24T06:30:21.603Z,13.00
2023-07-24T06:31:21.576Z,9.40
2023-07-24T06:32:21.510Z,8.20
2023-07-24T06:33:21.516Z,11.90
2023-07-24T06:34:21.528Z,9.30
2023-07-24T06:35:21.515Z,11.80
2023-07-24T06:36:21.512Z,9.30
2023-07-24T06:37:23.119Z,9.70
2023-07-24T06:38:21.457Z,10.00
2023-07-24T06:39:21.536Z,9.10
2023-07-24T06:40:21.438Z,8.90
2023-07-24T06:41:21.451Z,10.20
2023-07-24T06:42:21.692Z,8.20
2023-07-24T06:43:21.448Z,10.30
2023-07-24T06:44:21.449Z,10.00
2023-07-24T06:45:21.387Z,11.50
2023-07-24T06:46:22.453Z,9.60
2023-07-24T06:47:21.355Z,9.00
2023-07-24T06:48:21.353Z,8.90
2023-07-24T06:49:21.444Z,10.90
2023-07-24T06:50:21.325Z,8.40
2023-07-24T06:51:21.301Z,12.30
2023-07-24T06:52:21.340Z,10.10
2023-07-24T06:53:23.053Z,9.90
2023-07-24T06:54:21.291Z,9.40
2023-07-24T06:55:21.277Z,10.60
2023-07-24T06:56:21.264Z,10.60
2023-07-24T06:57:21.276Z,9.00
2023-07-24T06:58:21.286Z,8.00
2023-07-24T06:59:21.210Z,9.40
2023-07-24T07:00:21.215Z,8.50
2023-07-24T07:01:21.235Z,8.70
2023-07-24T07:02:21.191Z,7.90
2023-07-24T07:03:21.242Z,8.20
2023-07-24T07:04:21.252Z,9.60
2023-07-24T07:05:21.133Z,8.90
2023-07-24T07:07:21.220Z,10.00
2023-07-24T07:08:21.129Z,9.10
2023-07-24T07:09:21.111Z,10.50
2023-07-24T07:10:21.137Z,8.40
2023-07-24T07:11:21.130Z,10.30
2023-07-24T07:12:22.381Z,10.60
2023-07-24T07:13:21.068Z,9.50
2023-07-24T07:14:21.054Z,10.80
2023-07-24T07:15:21.057Z,9.00
2023-07-24T07:16:21.062Z,9.60
2023-07-24T07:17:21.044Z,9.20
2023-07-24T07:18:21.005Z,12.00
2023-07-24T07:19:20.996Z,10.30
2023-07-24T07:20:20.968Z,9.40
2023-07-24T07:21:20.992Z,8.30
2023-07-24T07:22:21.010Z,8.50
2023-07-24T07:23:20.964Z,9.60
2023-07-24T07:24:20.999Z,9.50
2023-07-24T07:25:20.956Z,9.10
2023-07-24T07:26:20.971Z,11.30
2023-07-24T07:27:20.937Z,9.50
2023-07-24T07:28:20.922Z,10.40
2023-07-24T07:29:20.900Z,12.10
2023-07-24T07:30:20.895Z,7.80
2023-07-24T07:31:20.937Z,9.00
2023-07-24T07:32:20.859Z,9.80
2023-07-24T07:33:20.880Z,10.60
2023-07-24T07:34:20.869Z,9.20
2023-07-24T07:35:20.817Z,13.70
2023-07-24T07:36:21.939Z,8.70
2023-07-24T07:37:20.812Z,9.00
2023-07-24T07:38:20.800Z,10.50
2023-07-24T07:39:20.795Z,9.20
2023-07-24T07:40:20.794Z,6.80
2023-07-24T07:41:20.838Z,7.90
2023-07-24T07:42:20.734Z,9.40
2023-07-24T07:43:20.738Z,9.40
2023-07-24T07:44:21.750Z,8.50
2023-07-24T07:45:20.768Z,9.00
2023-07-24T07:46:20.751Z,13.00
2023-07-24T07:47:20.767Z,7.80
2023-07-24T07:48:20.666Z,9.50
2023-07-24T07:49:20.668Z,9.80
2023-07-24T07:50:20.702Z,9.20
2023-07-24T07:51:20.672Z,8.30
2023-07-24T07:52:20.874Z,10.90
2023-07-24T07:53:20.679Z,10.00
2023-07-24T07:54:20.623Z,9.30
2023-07-24T07:55:20.625Z,9.10
2023-07-24T07:56:20.629Z,11.60
2023-07-24T07:57:21.294Z,10.00
2023-07-24T07:58:21.305Z,9.20
2023-07-24T07:59:21.125Z,9.30
2023-07-24T08:00:21.113Z,10.70
2023-07-24T08:01:20.661Z,9.30
2023-07-24T08:02:20.555Z,9.70
2023-07-24T08:03:20.596Z,9.80
2023-07-24T08:04:20.528Z,11.60
2023-07-24T08:05:21.671Z,9.30
2023-07-24T08:06:20.560Z,9.10
2023-07-24T08:07:21.303Z,10.20
2023-07-24T08:08:20.462Z,8.80
2023-07-24T08:09:20.490Z,10.00
2023-07-24T08:10:20.458Z,10.60
2023-07-24T08:11:20.433Z,11.00
2023-07-24T08:12:20.430Z,8.50
2023-07-24T08:13:20.400Z,9.10
2023-07-24T08:14:20.411Z,10.00
2023-07-24T08:15:20.378Z,8.90
2023-07-24T08:16:20.461Z,9.00
2023-07-24T08:17:20.440Z,8.50
2023-07-24T08:18:20.372Z,9.00
2023-07-24T08:19:20.347Z,8.10
2023-07-24T08:20:20.392Z,9.20
2023-07-24T08:21:20.328Z,9.50
2023-07-24T08:22:21.095Z,11.10
2023-07-24T08:23:20.296Z,9.10
2023-07-24T08:24:20.327Z,11.10
2023-07-24T08:25:20.318Z,8.50
2023-07-24T08:26:20.270Z,8.50
2023-07-24T08:27:20.251Z,7.90
2023-07-24T08:28:20.216Z,8.20
2023-07-24T08:29:20.361Z,9.20
2023-07-24T08:30:20.200Z,10.00
2023-07-24T08:31:20.270Z,8.50
2023-07-24T08:32:20.304Z,8.20
2023-07-24T08:33:20.182Z,9.10
2023-07-24T08:34:20.202Z,8.70
2023-07-24T08:35:20.144Z,8.40
2023-07-24T08:36:20.132Z,8.50
2023-07-24T08:37:20.165Z,10.80
2023-07-24T08:38:20.153Z,8.20
2023-07-24T08:39:20.149Z,7.20
2023-07-24T08:40:20.124Z,7.50
2023-07-24T08:41:20.144Z,7.00
2023-07-24T08:42:20.131Z,6.20
2023-07-24T08:43:21.986Z,5.70
2023-07-24T08:44:20.065Z,8.20
2023-07-24T08:45:20.036Z,7.10
2023-07-24T08:46:20.051Z,7.90
2023-07-24T08:47:20.866Z,8.90
2023-07-24T08:48:20.240Z,6.80
2023-07-24T08:49:22.027Z,8.40
2023-07-24T08:50:20.808Z,7.30
2023-07-24T08:51:19.995Z,6.40
2023-07-24T08:52:34.421Z,7.60
2023-07-24T08:53:19.975Z,8.10
2023-07-24T08:54:19.970Z,6.90
2023-07-24T08:55:19.987Z,8.70
2023-07-24T08:56:19.938Z,8.90
2023-07-24T08:57:20.234Z,6.50
2023-07-24T08:58:19.900Z,8.40
2023-07-24T08:59:20.117Z,10.90
2023-07-24T09:00:19.927Z,8.10
2023-07-24T09:01:19.912Z,6.90
2023-07-24T09:02:20.270Z,8.20
2023-07-24T09:03:20.002Z,8.50
2023-07-24T09:04:19.839Z,10.50
2023-07-24T09:05:19.853Z,6.80
2023-07-24T09:06:20.820Z,7.90
2023-07-24T09:07:21.256Z,8.70
2023-07-24T09:08:19.792Z,8.60
2023-07-24T09:09:19.801Z,12.30
2023-07-24T09:10:19.923Z,7.70
2023-07-24T09:11:19.786Z,7.00
2023-07-24T09:12:19.771Z,8.90
2023-07-24T09:13:19.783Z,7.00
2023-07-24T09:14:20.642Z,9.10
2023-07-24T09:15:19.783Z,7.00
2023-07-24T09:16:19.733Z,9.00
2023-07-24T09:17:19.773Z,8.70
2023-07-24T09:18:19.688Z,10.30
2023-07-24T09:19:26.639Z,12.10
2023-07-24T09:20:31.983Z,7.60
2023-07-24T09:21:21.091Z,9.50
2023-07-24T09:22:20.650Z,8.50
2023-07-24T09:23:22.044Z,8.40
2023-07-24T09:24:19.701Z,8.80
2023-07-24T09:25:19.632Z,9.50
2023-07-24T09:26:21.937Z,7.20
2023-07-24T09:27:19.571Z,8.60
2023-07-24T09:28:19.601Z,7.00
2023-07-24T09:29:19.600Z,9.70
2023-07-24T09:30:19.565Z,9.10
2023-07-24T09:31:19.572Z,9.50
2023-07-24T09:32:19.590Z,6.80
2023-07-24T09:33:19.525Z,6.50
2023-07-24T09:34:19.557Z,8.40
2023-07-24T09:35:19.520Z,10.50
2023-07-24T09:36:19.493Z,11.80
2023-07-24T09:37:19.467Z,9.80
2023-07-24T09:38:19.461Z,11.00
2023-07-24T09:39:19.446Z,9.30
2023-07-24T09:40:19.489Z,11.40
2023-07-24T09:42:19.549Z,10.20
2023-07-24T09:43:37.009Z,11.20
2023-07-24T09:44:19.460Z,14.00
2023-07-24T09:45:23.183Z,8.30
2023-07-24T09:46:19.426Z,10.30
2023-07-24T09:48:40.793Z,9.00
2023-07-24T09:49:19.453Z,8.00
2023-07-24T09:50:19.817Z,10.60
2023-07-24T09:51:19.305Z,8.30
2023-07-24T09:52:19.304Z,9.80
2023-07-24T09:53:19.311Z,8.10
2023-07-24T09:54:19.381Z,11.00
2023-07-24T09:55:19.285Z,8.90
2023-07-24T09:56:19.288Z,10.10
2023-07-24T09:57:21.664Z,6.80
2023-07-24T09:58:19.227Z,6.80
2023-07-24T09:59:19.543Z,6.90
2023-07-24T10:00:19.225Z,5.90
2023-07-24T10:01:19.302Z,6.80
2023-07-24T10:02:19.211Z,6.60
2023-07-24T10:03:19.177Z,6.60
2023-07-24T10:04:19.367Z,7.30
2023-07-24T10:05:19.212Z,7.40
2023-07-24T10:06:19.150Z,7.50
2023-07-24T10:07:19.153Z,8.90
2023-07-24T10:08:19.128Z,6.70
2023-07-24T10:09:19.225Z,7.60
2023-07-24T10:10:19.701Z,8.40
2023-07-24T10:11:19.077Z,5.90
2023-07-24T10:12:19.063Z,6.10
2023-07-24T10:13:19.190Z,6.70
2023-07-24T10:14:19.119Z,5.20
2023-07-24T10:15:19.064Z,6.40
2023-07-24T10:16:19.085Z,8.30
2023-07-24T10:17:20.616Z,4.70
2023-07-24T10:18:19.021Z,6.80
2023-07-24T10:19:20.662Z,5.50
2023-07-24T10:20:18.978Z,5.40
2023-07-24T10:21:19.001Z,5.20
2023-07-24T10:22:18.977Z,7.50
2023-07-24T10:23:19.070Z,5.60
2023-07-24T10:24:35.425Z,4.50
2023-07-24T10:25:19.052Z,7.70
2023-07-24T10:26:19.014Z,6.70
2023-07-24T10:27:19.378Z,6.60
2023-07-24T10:28:19.013Z,5.40
2023-07-24T10:29:19.011Z,4.70
2023-07-24T10:30:33.709Z,6.80
2023-07-24T10:31:19.046Z,6.20
2023-07-24T10:32:18.983Z,4.90
2023-07-24T10:33:19.148Z,6.80
2023-07-24T10:34:18.889Z,5.90
2023-07-24T10:35:18.851Z,3.80
2023-07-24T10:36:18.846Z,6.10
2023-07-24T10:37:18.851Z,5.40
2023-07-24T10:38:18.802Z,5.00
2023-07-24T10:39:18.879Z,5.20
2023-07-24T10:40:19.028Z,5.70
2023-07-24T10:41:18.812Z,6.30
2023-07-24T10:42:18.760Z,5.00
2023-07-24T10:43:18.746Z,4.00
2023-07-24T10:44:19.332Z,5.30
2023-07-24T10:45:18.703Z,5.60
2023-07-24T10:46:18.762Z,7.90
2023-07-24T10:47:18.699Z,5.50
2023-07-24T10:48:18.668Z,5.50
2023-07-24T10:49:18.888Z,4.20
2023-07-24T10:50:18.649Z,5.10
2023-07-24T10:51:18.643Z,7.30
2023-07-24T10:52:18.639Z,5.10
2023-07-24T10:53:18.629Z,4.10
2023-07-24T10:54:18.930Z,5.60
2023-07-24T10:55:18.652Z,4.80
2023-07-24T10:56:18.720Z,6.00
2023-07-24T10:57:18.611Z,4.70
2023-07-24T10:58:18.632Z,5.00
2023-07-24T10:59:18.582Z,4.80
2023-07-24T11:00:18.607Z,4.60
2023-07-24T11:01:18.574Z,4.50
2023-07-24T11:02:18.537Z,4.90
2023-07-24T11:03:18.515Z,5.70
2023-07-24T11:04:18.621Z,4.60
2023-07-24T11:05:19.490Z,5.20
2023-07-24T11:06:18.489Z,5.00
2023-07-24T11:07:18.483Z,8.50
2023-07-24T11:08:18.507Z,4.90
2023-07-24T11:09:18.456Z,4.40
2023-07-24T11:10:20.360Z,5.40
2023-07-24T11:11:18.547Z,6.10
2023-07-24T11:12:19.291Z,5.40
2023-07-24T11:13:18.549Z,6.00
2023-07-24T11:14:18.433Z,6.30
2023-07-24T11:15:18.774Z,4.90
2023-07-24T11:16:18.409Z,5.70
2023-07-24T11:17:18.400Z,5.30
2023-07-24T11:18:18.386Z,5.20
2023-07-24T11:19:18.472Z,5.30
2023-07-24T11:20:18.345Z,4.80
2023-07-24T11:21:18.355Z,4.40
2023-07-24T11:22:18.357Z,4.40
2023-07-24T11:23:18.320Z,4.70
2023-07-24T11:24:18.362Z,4.30
2023-07-24T11:25:18.301Z,4.70
2023-07-24T11:26:18.313Z,4.60
2023-07-24T11:27:18.786Z,4.30
2023-07-24T11:28:18.267Z,5.60
2023-07-24T11:29:18.377Z,4.80
2023-07-24T11:30:18.285Z,4.60
2023-07-24T11:31:18.225Z,3.80
2023-07-24T11:32:18.194Z,4.20
2023-07-24T11:33:19.594Z,4.00
2023-07-24T11:34:18.837Z,5.10
2023-07-24T11:35:18.203Z,5.10
2023-07-24T11:36:18.191Z,5.50
2023-07-24T11:37:18.153Z,4.40
2023-07-24T11:38:18.142Z,3.80
2023-07-24T11:39:19.672Z,3.80
2023-07-24T11:40:18.132Z,5.50
2023-07-24T11:41:18.116Z,5.50
2023-07-24T11:42:18.098Z,3.50
2023-07-24T11:43:18.072Z,4.30
2023-07-24T11:44:18.106Z,5.00
2023-07-24T11:45:18.139Z,4.20
2023-07-24T11:46:18.066Z,3.70
2023-07-24T11:47:18.810Z,3.80
2023-07-24T11:48:18.121Z,4.10
2023-07-24T11:49:18.838Z,3.50
2023-07-24T11:50:18.051Z,6.00
2023-07-24T11:51:18.003Z,3.30
2023-07-24T11:52:18.005Z,3.90
2023-07-24T11:53:18.003Z,6.60
2023-07-24T11:54:18.114Z,5.10
2023-07-24T11:55:18.678Z,5.70
2023-07-24T11:56:17.969Z,4.10
2023-07-24T11:57:17.962Z,4.00
2023-07-24T11:58:18.819Z,4.70
2023-07-24T11:59:17.937Z,5.30
2023-07-24T12:00:17.886Z,4.90
2023-07-24T12:01:17.940Z,5.60
2023-07-24T12:02:17.930Z,4.90
2023-07-24T12:03:18.005Z,3.80
2023-07-24T12:04:17.916Z,3.90
2023-07-24T12:05:17.825Z,4.80
2023-07-24T12:06:17.829Z,3.90
2023-07-24T12:07:17.842Z,4.40
2023-07-24T12:08:17.801Z,3.60
2023-07-24T12:09:17.797Z,3.00
2023-07-24T12:10:17.774Z,5.50
2023-07-24T12:11:17.789Z,3.90
2023-07-24T12:12:17.849Z,4.00
2023-07-24T12:13:19.325Z,3.80
2023-07-24T12:14:17.816Z,4.00
2023-07-24T12:15:18.096Z,5.40
2023-07-24T12:16:17.738Z,5.60
2023-07-24T12:17:17.708Z,3.90
2023-07-24T12:18:17.750Z,3.90
2023-07-24T12:19:17.689Z,4.10
2023-07-24T12:20:17.721Z,7.60
2023-07-24T12:21:17.692Z,5.50
2023-07-24T12:22:17.661Z,3.60
2023-07-24T12:23:17.687Z,6.80
2023-07-24T12:24:17.667Z,4.80
2023-07-24T12:25:17.665Z,6.90
2023-07-24T12:26:17.628Z,6.70
2023-07-24T12:27:17.608Z,4.00
2023-07-24T12:28:17.572Z,3.60
2023-07-24T12:29:17.644Z,6.50
2023-07-24T12:30:17.670Z,5.00
2023-07-24T12:31:17.618Z,4.30
2023-07-24T12:32:17.578Z,6.80
2023-07-24T12:33:17.512Z,9.60
2023-07-24T12:34:17.601Z,9.10
2023-07-24T12:35:17.650Z,6.40
2023-07-24T12:36:17.535Z,4.80
2023-07-24T12:37:17.522Z,6.10
2023-07-24T12:38:17.540Z,5.70
2023-07-24T12:39:17.477Z,4.90
2023-07-24T12:40:17.573Z,4.70
2023-07-24T12:41:17.461Z,6.10
2023-07-24T12:42:17.425Z,6.10
2023-07-24T12:43:17.444Z,6.90
2023-07-24T12:44:17.644Z,5.00
2023-07-24T12:45:17.407Z,6.50
2023-07-24T12:46:17.438Z,6.40
2023-07-24T12:47:17.390Z,4.10
2023-07-24T12:48:17.419Z,5.90
2023-07-24T12:49:17.350Z,6.20
2023-07-24T12:50:17.396Z,4.40
2023-07-24T12:51:17.337Z,4.30
2023-07-24T12:52:17.314Z,6.20
2023-07-24T12:53:19.491Z,5.10
2023-07-24T12:54:28.218Z,5.60
2023-07-24T12:55:17.345Z,5.30
2023-07-24T12:56:17.351Z,4.90
2023-07-24T12:57:17.278Z,7.70
2023-07-24T12:58:17.301Z,5.20
2023-07-24T12:59:18.988Z,5.30
2023-07-24T13:00:17.415Z,6.20
2023-07-24T13:01:17.301Z,5.60
2023-07-24T13:02:17.202Z,6.40
2023-07-24T13:03:17.268Z,6.30
2023-07-24T13:04:17.199Z,6.00
2023-07-24T13:05:17.190Z,6.10
2023-07-24T13:06:17.186Z,6.60
2023-07-24T13:07:17.256Z,4.40
2023-07-24T13:08:19.053Z,6.30
2023-07-24T13:09:17.141Z,5.10
2023-07-24T13:10:17.653Z,7.70
2023-07-24T13:11:17.272Z,6.90
2023-07-24T13:12:17.138Z,6.10
2023-07-24T13:13:17.092Z,4.60
2023-07-24T13:14:17.986Z,4.30